createdAt,value
2023-01-09T00:01:41.748Z,53.70
2023-01-09T00:04:10.246Z,59.40
2023-01-09T00:06:40.355Z,66.90
2023-01-09T00:09:08.474Z,58.90
2023-01-09T00:11:38.761Z,55.00
2023-01-09T00:14:06.982Z,51.90
2023-01-09T00:16:35.094Z,54.40
2023-01-09T00:19:03.155Z,59.50
2023-01-09T00:21:31.465Z,56.10
2023-01-09T00:23:59.629Z,56.60
2023-01-09T00:26:27.703Z,52.60
2023-01-09T00:28:55.985Z,51.10
2023-01-09T00:31:23.947Z,57.80
2023-01-09T00:33:57.929Z,50.80
2023-01-09T00:36:26.271Z,54.00
2023-01-09T00:38:54.326Z,51.50
2023-01-09T00:41:43.656Z,66.70
2023-01-09T00:44:23.764Z,55.60
2023-01-09T00:46:57.243Z,53.20
2023-01-09T00:49:25.178Z,58.90
2023-01-09T00:51:53.141Z,66.90
2023-01-09T00:54:21.910Z,52.40
2023-01-09T00:56:49.930Z,50.70
2023-01-09T00:59:18.092Z,59.30
2023-01-09T01:01:46.186Z,60.90
2023-01-09T01:04:33.608Z,52.20
2023-01-09T01:07:20.477Z,49.70
2023-01-09T01:09:48.478Z,59.30
2023-01-09T01:12:16.514Z,52.10
2023-01-09T01:14:44.457Z,54.90
2023-01-09T01:17:12.380Z,51.90
2023-01-09T01:19:40.423Z,52.20
2023-01-09T01:22:08.489Z,55.40
2023-01-09T01:24:36.486Z,54.00
2023-01-09T01:27:04.477Z,53.70
2023-01-09T01:29:32.962Z,49.00
2023-01-09T01:32:01.029Z,61.10
2023-01-09T01:34:29.658Z,66.60
2023-01-09T01:36:57.743Z,45.80
2023-01-09T01:39:26.092Z,49.80
2023-01-09T01:41:54.188Z,55.70
2023-01-09T01:45:00.379Z,50.80
2023-01-09T01:47:39.030Z,50.40
2023-01-09T01:50:19.999Z,56.50
2023-01-09T01:52:57.036Z,55.80
2023-01-09T01:55:25.111Z,50.60
2023-01-09T01:57:56.265Z,51.00
2023-01-09T02:00:32.999Z,58.20
2023-01-09T02:03:01.425Z,49.80
2023-01-09T02:05:29.599Z,48.60
2023-01-09T02:07:57.830Z,56.80
2023-01-09T02:10:25.863Z,42.10
2023-01-09T02:12:53.937Z,49.20
2023-01-09T02:15:22.489Z,45.80
2023-01-09T02:17:56.915Z,48.60
2023-01-09T02:20:30.950Z,47.30
2023-01-09T02:23:17.925Z,49.10
2023-01-09T02:26:07.687Z,49.00
2023-01-09T02:29:10.039Z,94.40
2023-01-09T02:31:40.843Z,53.50
2023-01-09T02:34:25.271Z,50.60
2023-01-09T02:36:53.185Z,52.20
2023-01-09T02:39:33.230Z,44.20
2023-01-09T02:42:08.655Z,49.40
2023-01-09T02:44:37.150Z,44.70
2023-01-09T02:47:32.190Z,46.50
2023-01-09T02:50:04.885Z,57.10
2023-01-09T02:53:11.658Z,50.70
2023-01-09T02:55:59.197Z,51.60
2023-01-09T02:58:53.093Z,53.90
2023-01-09T03:01:29.344Z,56.20
2023-01-09T03:04:15.962Z,52.20
2023-01-09T03:06:56.373Z,54.80
2023-01-09T03:09:27.641Z,48.60
2023-01-09T03:12:20.633Z,50.20
2023-01-09T03:14:51.019Z,51.00
2023-01-09T03:17:30.341Z,61.40
2023-01-09T03:19:58.368Z,51.30
2023-01-09T03:22:26.386Z,44.10
2023-01-09T03:24:54.449Z,47.90
2023-01-09T03:27:22.466Z,48.30
2023-01-09T03:29:51.426Z,47.10
2023-01-09T03:32:20.040Z,48.40
2023-01-09T03:34:48.090Z,48.30
2023-01-09T03:37:16.478Z,47.00
2023-01-09T03:39:44.457Z,49.40
2023-01-09T03:42:12.594Z,48.70
2023-01-09T03:44:40.560Z,53.40
2023-01-09T03:47:08.595Z,46.40
2023-01-09T03:49:36.707Z,48.70
2023-01-09T03:52:05.119Z,51.50
2023-01-09T03:54:33.051Z,49.60
2023-01-09T03:57:01.045Z,51.40
2023-01-09T03:59:29.009Z,48.60
2023-01-09T04:01:57.168Z,50.40
2023-01-09T04:04:25.302Z,49.70
2023-01-09T04:06:53.310Z,48.40
2023-01-09T04:09:21.438Z,50.50
2023-01-09T04:11:49.522Z,48.50
2023-01-09T04:14:17.625Z,50.00
2023-01-09T04:16:45.784Z,46.10
2023-01-09T04:19:14.239Z,50.60
2023-01-09T04:21:42.308Z,47.90
2023-01-09T04:24:10.440Z,52.00
2023-01-09T04:26:38.553Z,47.40
2023-01-09T04:29:07.237Z,48.70
2023-01-09T04:31:36.054Z,51.10
2023-01-09T04:34:04.196Z,43.30
2023-01-09T04:36:34.764Z,53.30
2023-01-09T04:39:03.434Z,48.60
2023-01-09T04:41:49.674Z,50.00
2023-01-09T04:44:19.214Z,50.10
2023-01-09T04:46:47.780Z,46.50
2023-01-09T04:49:16.077Z,49.70
2023-01-09T04:51:44.267Z,48.50
2023-01-09T04:54:12.764Z,51.00
2023-01-09T04:56:40.889Z,52.00
2023-01-09T04:59:09.217Z,47.30
2023-01-09T05:01:37.643Z,48.40
2023-01-09T05:04:06.097Z,50.30
2023-01-09T05:06:34.531Z,52.10
2023-01-09T05:09:02.760Z,52.50
2023-01-09T05:11:30.928Z,49.30
2023-01-09T05:13:59.133Z,56.90
2023-01-09T05:16:27.239Z,51.00
2023-01-09T05:18:57.310Z,58.30
2023-01-09T05:21:25.494Z,51.00
2023-01-09T05:23:53.774Z,48.80
2023-01-09T05:26:26.403Z,49.90
2023-01-09T05:28:56.601Z,52.80
2023-01-09T05:31:25.957Z,51.60
2023-01-09T05:33:54.289Z,53.80
2023-01-09T05:36:22.734Z,169.00
2023-01-09T05:38:51.059Z,54.00
2023-01-09T05:41:19.145Z,62.60
2023-01-09T05:43:47.203Z,49.80
2023-01-09T05:46:16.418Z,51.90
2023-01-09T05:48:45.341Z,57.40
2023-01-09T05:51:13.533Z,54.90
2023-01-09T05:53:43.555Z,60.70
2023-01-09T05:56:12.059Z,48.50
2023-01-09T05:58:40.546Z,57.90
2023-01-09T06:01:08.769Z,55.20
2023-01-09T06:03:36.826Z,52.20
2023-01-09T06:06:05.129Z,50.90
2023-01-09T06:08:33.121Z,58.30
2023-01-09T06:11:01.326Z,62.50
2023-01-09T06:13:29.604Z,57.90
2023-01-09T06:15:57.825Z,56.10
2023-01-09T06:18:26.015Z,53.80
2023-01-09T06:20:55.492Z,61.40
2023-01-09T06:23:23.608Z,59.20
2023-01-09T06:25:51.875Z,68.10
2023-01-09T06:28:20.263Z,67.10
2023-01-09T06:30:54.276Z,72.20
2023-01-09T06:33:22.724Z,59.50
2023-01-09T06:35:50.753Z,56.40
2023-01-09T06:38:18.838Z,59.70
2023-01-09T06:40:46.962Z,63.30
2023-01-09T06:43:15.143Z,61.10
2023-01-09T06:45:44.018Z,58.50
2023-01-09T06:48:12.487Z,60.50
2023-01-09T06:50:40.808Z,60.80
2023-01-09T06:53:10.881Z,82.70
2023-01-09T06:55:39.113Z,56.70
2023-01-09T06:58:07.362Z,55.40
2023-01-09T07:00:35.628Z,55.70
2023-01-09T07:03:04.249Z,62.30
2023-01-09T07:05:34.286Z,50.40
2023-01-09T07:08:02.422Z,57.20
2023-01-09T07:10:30.661Z,61.00
2023-01-09T07:12:58.773Z,54.50
2023-01-09T07:15:26.980Z,54.20
2023-01-09T07:17:54.983Z,62.90
2023-01-09T07:20:23.187Z,52.10
2023-01-09T07:22:51.466Z,55.20
2023-01-09T07:25:19.644Z,59.50
2023-01-09T07:27:47.825Z,71.30
2023-01-09T07:30:16.322Z,59.10
2023-01-09T07:32:45.198Z,53.50
2023-01-09T07:35:13.645Z,53.30
2023-01-09T07:37:41.839Z,59.50
2023-01-09T07:40:10.728Z,60.00
2023-01-09T07:42:38.894Z,57.10
2023-01-09T07:45:07.723Z,63.30
2023-01-09T07:47:35.989Z,63.40
2023-01-09T07:50:04.382Z,65.90
2023-01-09T07:52:32.828Z,65.20
2023-01-09T07:55:00.836Z,65.20
2023-01-09T07:57:30.848Z,66.00
2023-01-09T08:00:00.675Z,66.80
2023-01-09T08:02:29.072Z,83.80
2023-01-09T08:04:57.261Z,75.80
2023-01-09T08:07:25.294Z,67.20
2023-01-09T08:09:53.476Z,74.00
2023-01-09T08:12:21.441Z,74.60
2023-01-09T08:14:49.517Z,77.10
2023-01-09T08:17:17.638Z,71.90
2023-01-09T08:19:45.728Z,82.70
2023-01-09T08:22:14.082Z,69.40
2023-01-09T08:24:42.265Z,70.30
2023-01-09T08:27:10.623Z,79.80
2023-01-09T08:29:38.820Z,66.70
2023-01-09T08:32:07.264Z,72.00
2023-01-09T08:34:35.858Z,70.60
2023-01-09T08:37:04.591Z,72.20
2023-01-09T08:39:33.255Z,82.50
2023-01-09T08:42:20.279Z,66.80
2023-01-09T08:45:07.144Z,74.80
2023-01-09T08:47:36.351Z,72.20
2023-01-09T08:50:05.150Z,69.20
2023-01-09T08:52:33.160Z,73.40
2023-01-09T08:55:01.152Z,71.00
2023-01-09T08:57:29.525Z,72.10
2023-01-09T09:00:00.632Z,75.70
2023-01-09T09:02:28.933Z,75.20
2023-01-09T09:04:57.064Z,72.20
2023-01-09T09:07:28.296Z,73.80
2023-01-09T09:09:56.544Z,76.20
2023-01-09T09:12:24.629Z,68.90
2023-01-09T09:15:11.686Z,62.30
2023-01-09T09:17:40.559Z,70.50
2023-01-09T09:20:09.956Z,75.70
2023-01-09T09:22:38.469Z,72.00
2023-01-09T09:25:07.184Z,71.20
2023-01-09T09:27:36.687Z,69.40
2023-01-09T09:30:05.168Z,69.70
2023-01-09T09:32:33.300Z,66.30
2023-01-09T09:35:01.369Z,67.10
2023-01-09T09:37:29.493Z,64.00
2023-01-09T09:39:58.088Z,66.90
2023-01-09T09:42:59.069Z,64.40
2023-01-09T09:45:33.463Z,65.20
2023-01-09T09:48:30.502Z,65.40
2023-01-09T09:51:20.483Z,67.40
2023-01-09T09:53:51.942Z,66.40
2023-01-09T09:56:21.928Z,68.00
2023-01-09T09:59:09.851Z,65.20
2023-01-09T10:01:51.322Z,63.00
2023-01-09T10:04:20.223Z,74.10
2023-01-09T10:06:51.371Z,63.70
2023-01-09T10:09:57.787Z,66.30
2023-01-09T10:12:32.615Z,63.60
2023-01-09T10:15:21.899Z,64.70
2023-01-09T10:18:31.780Z,65.20
2023-01-09T10:21:10.322Z,64.40
2023-01-09T10:23:48.074Z,65.50
2023-01-09T10:26:24.236Z,67.40
2023-01-09T10:29:07.588Z,69.90
2023-01-09T10:32:07.009Z,113.00
2023-01-09T10:34:54.947Z,60.50
2023-01-09T10:37:28.399Z,63.20
2023-01-09T10:40:08.361Z,59.50
2023-01-09T10:42:43.221Z,60.40
2023-01-09T10:45:20.324Z,62.50
2023-01-09T10:47:48.500Z,65.30
2023-01-09T10:50:22.158Z,58.50
2023-01-09T10:52:52.421Z,59.30
2023-01-09T10:55:36.057Z,58.90
2023-01-09T10:58:10.765Z,59.10
2023-01-09T11:00:38.909Z,60.60
2023-01-09T11:03:18.118Z,60.00
2023-01-09T11:05:57.415Z,63.30
2023-01-09T11:08:33.861Z,64.10
2023-01-09T11:11:03.279Z,61.80
2023-01-09T11:13:33.577Z,60.30
2023-01-09T11:16:07.098Z,59.80
2023-01-09T11:18:38.447Z,60.40
2023-01-09T11:21:13.687Z,58.30
2023-01-09T11:23:41.800Z,64.90
2023-01-09T11:26:22.464Z,65.40
2023-01-09T11:29:26.178Z,64.70
2023-01-09T11:31:59.571Z,61.20
2023-01-09T11:34:29.354Z,64.20
2023-01-09T11:37:11.911Z,60.10
2023-01-09T11:39:41.991Z,59.50
2023-01-09T11:42:40.917Z,63.40
2023-01-09T11:45:19.952Z,61.90
2023-01-09T11:47:48.240Z,62.10
2023-01-09T11:50:21.242Z,63.10
2023-01-09T11:53:08.065Z,62.90
2023-01-09T11:55:42.582Z,63.00
2023-01-09T11:58:18.262Z,68.80
2023-01-09T12:00:58.381Z,64.80
2023-01-09T12:03:52.440Z,68.00
2023-01-09T12:06:23.230Z,71.30
2023-01-09T12:09:01.387Z,67.50
2023-01-09T12:11:54.202Z,69.40
2023-01-09T12:14:33.875Z,75.90
2023-01-09T12:17:26.295Z,65.10
2023-01-09T12:20:19.672Z,59.80
2023-01-09T12:23:13.455Z,67.20
2023-01-09T12:26:17.726Z,73.00
2023-01-09T12:29:07.502Z,73.40
2023-01-09T12:31:58.997Z,64.10
2023-01-09T12:34:30.906Z,64.70
2023-01-09T12:37:11.748Z,65.00
2023-01-09T12:39:56.920Z,68.20
2023-01-09T12:42:35.361Z,67.60
2023-01-09T12:45:24.577Z,61.70
2023-01-09T12:47:53.527Z,71.80
2023-01-09T12:50:47.024Z,74.30
2023-01-09T12:53:20.391Z,74.40
2023-01-09T12:56:15.204Z,93.10
2023-01-09T12:58:48.270Z,66.40
2023-01-09T13:01:25.355Z,65.20
2023-01-09T13:04:14.064Z,64.50
2023-01-09T13:06:45.721Z,68.70
2023-01-09T13:09:45.107Z,62.30
2023-01-09T13:12:21.452Z,65.40
2023-01-09T13:14:54.116Z,62.60
2023-01-09T13:17:28.540Z,63.70
2023-01-09T13:19:56.753Z,68.50
2023-01-09T13:22:26.515Z,79.00
2023-01-09T13:25:16.761Z,76.40
2023-01-09T13:27:49.244Z,103.20
2023-01-09T13:30:21.625Z,73.90
2023-01-09T13:33:17.397Z,99.30
2023-01-09T13:35:50.334Z,75.90
2023-01-09T13:38:23.187Z,71.80
2023-01-09T13:41:30.243Z,68.70
2023-01-09T13:43:59.781Z,67.20
2023-01-09T13:46:42.979Z,68.10
2023-01-09T13:49:31.317Z,72.10
2023-01-09T13:52:07.046Z,70.20
2023-01-09T13:54:47.514Z,74.10
2023-01-09T13:57:19.036Z,71.80
2023-01-09T13:59:48.779Z,74.00
2023-01-09T14:02:36.008Z,74.20
2023-01-09T14:05:10.705Z,69.10
2023-01-09T14:07:39.277Z,69.60
2023-01-09T14:10:23.192Z,88.30
2023-01-09T14:12:52.044Z,72.00
2023-01-09T14:15:27.571Z,66.90
2023-01-09T14:18:00.131Z,68.70
2023-01-09T14:20:37.837Z,72.60
2023-01-09T14:23:45.545Z,67.00
2023-01-09T14:25:56.073Z,65.70
2023-01-09T14:28:28.380Z,65.20
2023-01-09T14:30:56.496Z,66.80
2023-01-09T14:33:27.099Z,67.10
2023-01-09T14:36:14.380Z,69.70
2023-01-09T14:38:49.261Z,68.10
2023-01-09T14:42:05.692Z,69.30
2023-01-09T14:44:42.864Z,72.70
2023-01-09T14:47:31.172Z,65.00
2023-01-09T14:50:04.419Z,67.40
2023-01-09T14:52:40.768Z,68.30
2023-01-09T14:55:21.952Z,72.20
2023-01-09T14:57:59.463Z,67.20
2023-01-09T15:00:27.516Z,65.30
2023-01-09T15:02:55.793Z,70.90
2023-01-09T15:05:25.395Z,68.00
2023-01-09T15:07:58.559Z,70.10
2023-01-09T15:10:29.361Z,75.40
2023-01-09T15:12:58.859Z,70.70
2023-01-09T15:15:27.092Z,71.70
2023-01-09T15:17:59.634Z,70.40
2023-01-09T15:20:30.101Z,73.80
2023-01-09T15:23:00.890Z,67.40
2023-01-09T15:25:45.106Z,67.50
2023-01-09T15:28:23.765Z,65.90
2023-01-09T15:31:01.493Z,67.00
2023-01-09T15:33:33.198Z,68.40
2023-01-09T15:36:02.854Z,73.10
2023-01-09T15:38:31.764Z,74.60
2023-01-09T15:41:10.083Z,70.60
2023-01-09T15:43:43.138Z,72.40
2023-01-09T15:46:12.130Z,71.40
2023-01-09T15:48:40.325Z,76.60
2023-01-09T15:51:13.615Z,79.70
2023-01-09T15:53:41.794Z,70.30
2023-01-09T15:56:17.352Z,71.00
2023-01-09T15:58:47.397Z,72.70
2023-01-09T16:01:42.226Z,72.00
2023-01-09T16:04:15.927Z,69.40
2023-01-09T16:06:49.126Z,67.00
2023-01-09T16:09:23.321Z,71.10
2023-01-09T16:11:53.738Z,68.90
2023-01-09T16:14:35.571Z,66.40
2023-01-09T16:17:07.288Z,60.90
2023-01-09T16:19:51.670Z,64.20
2023-01-09T16:22:27.800Z,66.40
2023-01-09T16:25:01.212Z,73.90
2023-01-09T16:27:36.108Z,67.00
2023-01-09T16:30:20.591Z,71.20
2023-01-09T16:32:51.574Z,76.90
2023-01-09T16:35:21.125Z,72.60
2023-01-09T16:37:49.297Z,76.60
2023-01-09T16:40:17.373Z,73.80
2023-01-09T16:43:01.145Z,71.30
2023-01-09T16:45:39.604Z,74.90
2023-01-09T16:48:18.671Z,76.40
2023-01-09T16:50:47.421Z,79.60
2023-01-09T16:53:17.462Z,77.60
2023-01-09T16:55:45.976Z,71.60
2023-01-09T16:58:17.706Z,74.10
2023-01-09T17:00:48.222Z,73.00
2023-01-09T17:03:16.838Z,69.00
2023-01-09T17:05:45.135Z,83.20
2023-01-09T17:08:19.484Z,77.80
2023-01-09T17:10:47.495Z,74.60
2023-01-09T17:13:15.553Z,71.20
2023-01-09T17:15:43.656Z,72.50
2023-01-09T17:18:16.426Z,70.60
2023-01-09T17:20:45.729Z,74.20
2023-01-09T17:23:13.912Z,70.30
2023-01-09T17:26:01.245Z,69.00
2023-01-09T17:28:32.289Z,66.30
2023-01-09T17:31:00.901Z,65.50
2023-01-09T17:33:29.344Z,72.70
2023-01-09T17:35:57.674Z,70.90
2023-01-09T17:38:25.764Z,73.80
2023-01-09T17:40:55.679Z,69.30
2023-01-09T17:43:23.736Z,66.90
2023-01-09T17:45:51.881Z,71.70
2023-01-09T17:48:21.641Z,75.30
2023-01-09T17:50:49.768Z,71.60
2023-01-09T17:53:20.804Z,68.70
2023-01-09T17:55:48.813Z,68.40
2023-01-09T17:58:29.061Z,67.00
2023-01-09T18:00:57.902Z,66.60
2023-01-09T18:03:31.290Z,65.10
2023-01-09T18:05:59.920Z,63.60
2023-01-09T18:08:27.951Z,69.90
2023-01-09T18:10:56.241Z,62.80
2023-01-09T18:13:24.634Z,62.40
2023-01-09T18:15:52.855Z,62.60
2023-01-09T18:18:22.601Z,75.90
2023-01-09T18:20:51.249Z,154.60
2023-01-09T18:23:19.676Z,152.30
2023-01-09T18:25:51.553Z,304.00
2023-01-09T18:28:20.595Z,212.20
2023-01-09T18:30:52.219Z,90.10
2023-01-09T18:33:20.539Z,78.20
2023-01-09T18:35:48.685Z,107.50
2023-01-09T18:38:16.752Z,74.60
2023-01-09T18:40:46.887Z,68.90
2023-01-09T18:43:15.749Z,68.10
2023-01-09T18:45:43.964Z,72.50
2023-01-09T18:48:12.289Z,101.10
2023-01-09T18:50:40.411Z,81.30
2023-01-09T18:53:08.610Z,174.50
2023-01-09T18:55:36.887Z,91.10
2023-01-09T18:58:05.096Z,112.20
2023-01-09T19:00:33.119Z,247.70
2023-01-09T19:03:01.292Z,88.50
2023-01-09T19:05:29.256Z,76.70
2023-01-09T19:07:57.355Z,94.50
2023-01-09T19:10:25.391Z,86.70
2023-01-09T19:12:53.929Z,132.10
2023-01-09T19:15:21.972Z,88.10
2023-01-09T19:17:51.927Z,81.10
2023-01-09T19:20:19.984Z,86.20
2023-01-09T19:22:48.036Z,90.10
2023-01-09T19:25:16.493Z,73.30
2023-01-09T19:27:44.601Z,72.10
2023-01-09T19:30:13.115Z,71.00
2023-01-09T19:32:41.308Z,74.70
2023-01-09T19:35:09.867Z,69.40
2023-01-09T19:37:38.024Z,75.90
2023-01-09T19:40:06.999Z,72.20
2023-01-09T19:42:35.162Z,76.30
2023-01-09T19:45:03.425Z,80.40
2023-01-09T19:47:37.680Z,69.70
2023-01-09T19:50:06.197Z,79.80
2023-01-09T19:52:34.594Z,77.30
2023-01-09T19:55:02.576Z,71.70
2023-01-09T19:57:30.602Z,71.80
2023-01-09T19:59:58.750Z,62.80
2023-01-09T20:02:28.196Z,66.20
2023-01-09T20:04:56.413Z,66.20
2023-01-09T20:07:24.376Z,71.40
2023-01-09T20:09:52.526Z,67.90
2023-01-09T20:12:20.846Z,68.20
2023-01-09T20:14:49.698Z,70.60
2023-01-09T20:17:20.168Z,64.70
2023-01-09T20:19:50.835Z,67.30
2023-01-09T20:22:18.825Z,64.00
2023-01-09T20:24:48.852Z,77.60
2023-01-09T20:27:18.464Z,77.00
2023-01-09T20:29:48.161Z,70.90
2023-01-09T20:32:16.391Z,82.30
2023-01-09T20:34:44.530Z,66.60
2023-01-09T20:37:12.955Z,70.30
2023-01-09T20:39:42.806Z,68.90
2023-01-09T20:42:12.322Z,67.60
2023-01-09T20:44:40.279Z,65.30
2023-01-09T20:47:08.443Z,58.90
2023-01-09T20:49:36.937Z,57.20
2023-01-09T20:52:05.291Z,61.00
2023-01-09T20:54:33.367Z,56.70
2023-01-09T20:57:01.329Z,54.00
2023-01-09T20:59:29.432Z,53.90
2023-01-09T21:01:57.894Z,54.80
2023-01-09T21:04:26.309Z,52.40
2023-01-09T21:06:54.719Z,52.70
2023-01-09T21:09:25.320Z,54.60
2023-01-09T21:11:53.340Z,55.00
2023-01-09T21:14:21.513Z,53.30
2023-01-09T21:16:54.596Z,52.10
2023-01-09T21:19:23.379Z,63.60
2023-01-09T21:21:53.236Z,63.30
2023-01-09T21:24:21.821Z,52.70
2023-01-09T21:26:49.832Z,70.80
2023-01-09T21:29:17.821Z,92.90
2023-01-09T21:31:46.150Z,114.30
2023-01-09T21:34:16.160Z,65.70
2023-01-09T21:36:46.609Z,51.70
2023-01-09T21:39:19.090Z,49.00
2023-01-09T21:42:05.824Z,44.80
2023-01-09T21:44:52.875Z,44.70
2023-01-09T21:47:21.197Z,48.50
2023-01-09T21:49:49.621Z,47.50
2023-01-09T21:52:18.757Z,53.90
2023-01-09T21:54:46.857Z,60.80
2023-01-09T21:57:14.954Z,63.80
2023-01-09T21:59:42.992Z,74.30
2023-01-09T22:02:12.483Z,77.60
2023-01-09T22:04:40.512Z,55.80
2023-01-09T22:07:10.262Z,54.40
2023-01-09T22:09:38.237Z,49.70
2023-01-09T22:12:06.574Z,50.30
2023-01-09T22:14:34.581Z,61.60
2023-01-09T22:17:02.573Z,60.90
2023-01-09T22:19:30.648Z,52.20
2023-01-09T22:21:59.918Z,46.30
2023-01-09T22:24:27.841Z,43.50
2023-01-09T22:26:55.824Z,42.80
2023-01-09T22:29:23.904Z,44.50
2023-01-09T22:31:52.371Z,43.60
2023-01-09T22:34:20.510Z,45.50
2023-01-09T22:36:48.588Z,49.30
2023-01-09T22:39:18.338Z,43.10
2023-01-09T22:41:50.577Z,43.60
2023-01-09T22:44:19.590Z,43.30
2023-01-09T22:46:48.045Z,39.40
2023-01-09T22:49:16.273Z,40.90
2023-01-09T22:51:45.056Z,65.50
2023-01-09T22:54:13.159Z,44.90
2023-01-09T22:56:41.097Z,37.90
2023-01-09T22:59:09.157Z,42.00
2023-01-09T23:01:37.340Z,40.60
2023-01-09T23:04:05.502Z,44.70
2023-01-09T23:06:33.483Z,48.50
2023-01-09T23:09:01.505Z,54.30
2023-01-09T23:11:53.473Z,68.00
2023-01-09T23:14:21.653Z,133.90
2023-01-09T23:16:49.570Z,105.20
2023-01-09T23:19:17.543Z,59.50
2023-01-09T23:21:45.732Z,58.30
2023-01-09T23:24:15.599Z,50.40
2023-01-09T23:26:43.952Z,189.60
2023-01-09T23:29:12.094Z,241.30
2023-01-09T23:31:40.117Z,103.10
2023-01-09T23:34:08.477Z,78.30
2023-01-09T23:36:36.870Z,108.30
2023-01-09T23:39:09.088Z,100.70
2023-01-09T23:41:56.079Z,79.00
2023-01-09T23:44:24.071Z,58.30
2023-01-09T23:46:52.155Z,48.30
2023-01-09T23:49:20.356Z,50.60
2023-01-09T23:51:48.407Z,50.60
2023-01-09T23:54:17.232Z,48.50
2023-01-09T23:56:45.205Z,52.00
2023-01-09T23:59:14.685Z,44.90
